Silver Shadow — C6FN6 — position and weather

sailwx.info

Track history (hours):
 
Tides and Currents Weather Stations Pressure Air Temp Water Temp Dewpoint Dewpoint Depression Visibility Wind Speed Wind Dir Waves Ship Positions

Silver Shadow

Operator: V Ships Leisure SAM

Last reported at 2016-Aug-23 08:21 UTC. Time now 2016-Aug-25 07:57 UTC.
Position N 58°18' W 136°13'.

Length 186 m; draft 6.1 m.

Type: Ship. MMSI: 308628000.

Date/timePositionNaut miles runAvg speedWind from/ knotsBaromVisibWave heightAir tempDewpointWater temp
2016-Aug-23 08:21N 58°18' W 136°13'1215.8
2016-Aug-23 07:34N 58°18' W 135°49'  
2016-Aug-19 18:26N 51°15' W 128°26'1314.7
2016-Aug-19 17:31N 51°07' W 128°10'1414.8
2016-Aug-19 16:33N 51°00' W 127°50'1414.5
2016-Aug-19 15:34N 50°51' W 127°32'1212.3
2016-Aug-19 14:33N 50°46' W 127°14'1511.7
2016-Aug-19 13:17N 50°41' W 126°52'1211.3
2016-Aug-19 12:16N 50°32' W 126°40'3512.1
2016-Aug-19 09:24N 50°23' W 125°48'1312.9
2016-Aug-19 08:23N 50°20' W 125°28'1213.9
2016-Aug-19 07:33N 50°10' W 125°22'1110.8
2016-Aug-19 06:33N 50°00' W 125°13'1515.1
2016-Aug-19 05:34N 49°50' W 124°56'1515.2
2016-Aug-19 04:34N 49°39' W 124°39'1514.9
2016-Aug-19 03:34N 49°28' W 124°24'1515.4
2016-Aug-19 02:34N 49°22' W 124°02'1515.4
2016-Aug-19 01:34N 49°19' W 123°39'1615.6
2016-Aug-19 00:34N 49°19' W 123°15'6 5.4
2016-Aug-18 23:29N 49°17' W 123°07'0 0.0
2016-Aug-18 22:32N 49°17' W 123°07'0 0.0
2016-Aug-18 21:32N 49°17' W 123°07'0 0.0
2016-Aug-18 20:32N 49°17' W 123°07'0 0.0
2016-Aug-18 19:32N 49°17' W 123°07'0 0.0
2016-Aug-18 18:32N 49°17' W 123°07'0 0.0
2016-Aug-18 17:32N 49°17' W 123°07'0 0.0
2016-Aug-18 16:29N 49°17' W 123°07'0 0.0
2016-Aug-18 15:32N 49°17' W 123°07'0 0.0
2016-Aug-18 14:32N 49°17' W 123°07'3 3.3
2016-Aug-18 13:34N 49°19' W 123°11'1515.3
2016-Aug-18 12:33N 49°18' W 123°35'1616.3
2016-Aug-18 11:34N 49°22' W 123°59'1717.0
2016-Aug-18 10:34N 49°27' W 124°24'1717.0
2016-Aug-18 09:33N 49°39' W 124°43'1817.6
2016-Aug-18 08:33N 49°52' W 125°02'1716.8
2016-Aug-18 07:33N 50°05' W 125°17'1010.5
2016-Aug-18 06:33N 50°15' W 125°23'6512.2
2016-Aug-18 01:13N 50°42' W 126°57'1117.3
2016-Aug-18 00:33N 50°46' W 127°13'1716.6
2016-Aug-17 23:33N 50°54' W 127°37'1413.5
2016-Aug-17 22:33N 51°01' W 127°55'1211.4
2016-Aug-17 21:30N 51°08' W 128°10'  
2016-Aug-14 10:27N 58°11' W 135°22'1516.9
2016-Aug-14 09:33N 58°19' W 135°47'1615.5
2016-Aug-14 08:33N 58°18' W 136°17'  
Track history (hours):
 
Tides and Currents Weather Stations Pressure Air Temp Water Temp Dewpoint Dewpoint Depression Visibility Wind Speed Wind Dir Waves Ship Positions

Silver Shadow

Operator: V Ships Leisure SAM

Last reported at 2016-Aug-23 08:21 UTC. Time now 2016-Aug-25 07:57 UTC.
Position N 58°18' W 136°13'.

Length 186 m; draft 6.1 m.

Type: Ship. MMSI: 308628000.

Date/timePositionNaut miles runAvg speedWind from/ knotsBaromVisibWave heightAir tempDewpointWater temp
2016-Aug-23 08:21N 58°18' W 136°13'1215.8
2016-Aug-23 07:34N 58°18' W 135°49'  
2016-Aug-19 18:26N 51°15' W 128°26'1314.7
2016-Aug-19 17:31N 51°07' W 128°10'1414.8
2016-Aug-19 16:33N 51°00' W 127°50'1414.5
2016-Aug-19 15:34N 50°51' W 127°32'1212.3
2016-Aug-19 14:33N 50°46' W 127°14'1511.7
2016-Aug-19 13:17N 50°41' W 126°52'1211.3
2016-Aug-19 12:16N 50°32' W 126°40'3512.1
2016-Aug-19 09:24N 50°23' W 125°48'1312.9
2016-Aug-19 08:23N 50°20' W 125°28'1213.9
2016-Aug-19 07:33N 50°10' W 125°22'1110.8
2016-Aug-19 06:33N 50°00' W 125°13'1515.1
2016-Aug-19 05:34N 49°50' W 124°56'1515.2
2016-Aug-19 04:34N 49°39' W 124°39'1514.9
2016-Aug-19 03:34N 49°28' W 124°24'1515.4
2016-Aug-19 02:34N 49°22' W 124°02'1515.4
2016-Aug-19 01:34N 49°19' W 123°39'1615.6
2016-Aug-19 00:34N 49°19' W 123°15'6 5.4
2016-Aug-18 23:29N 49°17' W 123°07'0 0.0
2016-Aug-18 22:32N 49°17' W 123°07'0 0.0
2016-Aug-18 21:32N 49°17' W 123°07'0 0.0
2016-Aug-18 20:32N 49°17' W 123°07'0 0.0
2016-Aug-18 19:32N 49°17' W 123°07'0 0.0
2016-Aug-18 18:32N 49°17' W 123°07'0 0.0
2016-Aug-18 17:32N 49°17' W 123°07'0 0.0
2016-Aug-18 16:29N 49°17' W 123°07'0 0.0
2016-Aug-18 15:32N 49°17' W 123°07'0 0.0
2016-Aug-18 14:32N 49°17' W 123°07'3 3.3
2016-Aug-18 13:34N 49°19' W 123°11'1515.3
2016-Aug-18 12:33N 49°18' W 123°35'1616.3
2016-Aug-18 11:34N 49°22' W 123°59'1717.0
2016-Aug-18 10:34N 49°27' W 124°24'1717.0
2016-Aug-18 09:33N 49°39' W 124°43'1817.6
2016-Aug-18 08:33N 49°52' W 125°02'1716.8
2016-Aug-18 07:33N 50°05' W 125°17'1010.5
2016-Aug-18 06:33N 50°15' W 125°23'6512.2
2016-Aug-18 01:13N 50°42' W 126°57'1117.3
2016-Aug-18 00:33N 50°46' W 127°13'1716.6
2016-Aug-17 23:33N 50°54' W 127°37'1413.5
2016-Aug-17 22:33N 51°01' W 127°55'1211.4
2016-Aug-17 21:30N 51°08' W 128°10'  
2016-Aug-14 10:27N 58°11' W 135°22'1516.9
2016-Aug-14 09:33N 58°19' W 135°47'1615.5
2016-Aug-14 08:33N 58°18' W 136°17'  

Dump ship's entire track history